Time;durP1;ratioP1;P1;durP2;ratioP2;P2;SDS_P1;SDS_P2;PMS_P1;PMS_P2;Temp;Humidity;BMP_temperature;BMP_pressure;BME280_temperature;BME280_humidity;BME280_pressure;Samples;Min_cycle;Max_cycle;Signal;HPM_P1;HPM_P2
2021/03/22 00:01:04;;;;;;;20.57;10.03;;;;;;;0.42;62.17;96385.38;1727086;82;21104;-86
2021/03/22 00:03:32;;;;;;;17.67;10.33;;;;;;;0.45;62.14;96381.34;1726015;82;21171;-86
2021/03/22 00:06:01;;;;;;;19.40;9.73;;;;;;;0.51;62.10;96378.03;1748421;82;21159;-79
2021/03/22 00:08:30;;;;;;;15.40;10.50;;;;;;;0.57;62.23;96378.56;1756952;81;21119;-80
2021/03/22 00:10:57;;;;;;;18.03;10.40;;;;;;;0.66;62.11;96381.59;1729566;83;21135;-81
2021/03/22 00:13:27;;;;;;;16.27;9.73;;;;;;;0.70;61.99;96372.72;1732165;82;21328;-82
2021/03/22 00:16:00;;;;;;;19.30;11.90;;;;;;;0.76;61.88;96364.64;1756082;81;21135;-85
2021/03/22 00:18:33;;;;;;;22.87;12.00;;;;;;;0.79;61.78;96359.27;1754178;82;21139;-81
2021/03/22 00:21:03;;;;;;;17.07;10.47;;;;;;;0.85;61.68;96364.15;1749352;81;21166;-84
2021/03/22 00:23:30;;;;;;;16.15;10.43;;;;;;;0.90;61.58;96362.13;1732441;82;21150;-80
2021/03/22 00:25:59;;;;;;;17.55;10.93;;;;;;;0.94;61.46;96356.31;1759638;82;21136;-79
2021/03/22 00:28:27;;;;;;;16.77;9.70;;;;;;;0.99;61.32;96350.87;1752865;81;21237;-85
2021/03/22 00:31:03;;;;;;;14.63;9.80;;;;;;;1.01;61.10;96347.75;1759810;82;21234;-80
2021/03/22 00:33:35;;;;;;;18.30;10.77;;;;;;;1.03;61.01;96350.63;1745293;82;21684;-87
2021/03/22 00:36:05;;;;;;;14.78;9.73;;;;;;;1.05;60.87;96338.41;1729735;82;21127;-80
2021/03/22 00:38:36;;;;;;;14.78;9.63;;;;;;;1.09;60.76;96334.75;1729787;83;21297;-80
2021/03/22 00:41:04;;;;;;;15.85;10.65;;;;;;;1.07;60.67;96325.34;1729817;83;21352;-81
2021/03/22 00:43:32;;;;;;;19.48;11.03;;;;;;;1.10;60.54;96317.40;1733754;82;21140;-80
2021/03/22 00:46:04;;;;;;;17.27;9.58;;;;;;;1.07;60.40;96317.55;1735130;82;21148;-81
2021/03/22 00:48:35;;;;;;;19.05;9.93;;;;;;;1.04;60.43;96317.27;1722373;83;21618;-86
2021/03/22 00:51:06;;;;;;;17.03;10.73;;;;;;;1.07;60.48;96316.26;1717990;83;21569;-85
2021/03/22 00:53:36;;;;;;;22.82;12.40;;;;;;;1.05;60.44;96316.83;1717840;83;21152;-85
2021/03/22 00:56:04;;;;;;;15.60;10.00;;;;;;;1.03;60.47;96310.88;1721298;83;21191;-78
2021/03/22 00:58:33;;;;;;;18.12;11.12;;;;;;;1.00;60.49;96313.63;1721350;83;21156;-80
2021/03/22 01:01:02;;;;;;;19.37;11.63;;;;;;;0.93;60.59;96311.37;1740127;82;21111;-84
2021/03/22 01:03:36;;;;;;;16.23;9.33;;;;;;;0.88;60.72;96309.47;1756103;82;21154;-84
2021/03/22 01:06:10;;;;;;;17.02;10.75;;;;;;;0.84;60.72;96309.28;1759757;82;21254;-80
2021/03/22 01:08:41;;;;;;;17.52;10.80;;;;;;;0.81;61.06;96300.35;1759855;81;21271;-81
2021/03/22 01:11:14;;;;;;;15.35;9.40;;;;;;;0.79;60.91;96299.59;1756055;81;21123;-83
2021/03/22 01:13:53;;;;;;;16.10;8.68;;;;;;;0.76;60.84;96290.70;1759819;81;21073;-80
2021/03/22 01:16:35;;;;;;;15.87;9.93;;;;;;;0.73;60.79;96285.66;1753725;82;21151;-86
2021/03/22 01:19:13;;;;;;;19.63;11.70;;;;;;;0.72;60.93;96283.98;1759879;81;21112;-80
2021/03/22 01:21:51;;;;;;;14.47;9.05;;;;;;;0.68;60.83;96274.70;1756794;81;21151;-85
2021/03/22 01:24:22;;;;;;;20.20;10.73;;;;;;;0.65;60.77;96270.50;1756942;82;21128;-83
2021/03/22 01:26:54;;;;;;;15.93;10.17;;;;;;;0.61;60.78;96268.53;1759880;79;21151;-80
2021/03/22 01:29:30;;;;;;;14.20;8.37;;;;;;;0.61;60.84;96265.11;1756076;82;21313;-86
2021/03/22 01:31:59;;;;;;;13.25;7.45;;;;;;;0.58;60.79;96258.34;1760008;81;21546;-82
2021/03/22 01:34:30;;;;;;;16.50;10.83;;;;;;;0.60;60.75;96249.17;1759261;82;21182;-79
2021/03/22 01:36:59;;;;;;;15.45;9.85;;;;;;;0.54;60.70;96245.15;1759549;82;21119;-78
2021/03/22 01:39:31;;;;;;;13.95;8.75;;;;;;;0.58;60.77;96252.30;1759543;82;21278;-80
2021/03/22 01:42:32;;;;;;;15.53;8.83;;;;;;;0.57;60.74;96255.81;1757256;82;21561;-83
2021/03/22 01:45:05;;;;;;;16.70;10.05;;;;;;;0.57;60.81;96251.48;1756790;82;21327;-85
2021/03/22 01:47:36;;;;;;;13.60;8.90;;;;;;;0.58;60.89;96245.38;1731670;82;21273;-83
2021/03/22 01:50:22;;;;;;;15.15;9.68;;;;;;;0.57;60.72;96239.80;1756851;81;21123;-81
2021/03/22 01:52:51;;;;;;;14.65;9.13;;;;;;;0.54;60.65;96237.37;1756466;82;21163;-82
2021/03/22 01:55:22;;;;;;;15.78;9.13;;;;;;;0.54;60.65;96233.95;1730908;82;21115;-75
2021/03/22 01:57:50;;;;;;;13.57;7.63;;;;;;;0.54;60.65;96234.77;1756483;81;21309;-80
2021/03/22 02:00:32;;;;;;;14.28;8.33;;;;;;;0.54;60.65;96233.95;1749474;82;21145;-80
2021/03/22 02:03:08;;;;;;;16.20;8.33;;;;;;;0.53;60.59;96233.57;1742434;82;21270;-78
2021/03/22 02:05:40;;;;;;;16.62;9.30;;;;;;;0.50;60.51;96229.39;1743945;81;21298;-81
2021/03/22 02:08:13;;;;;;;17.47;9.57;;;;;;;0.51;60.70;96237.52;1748784;82;21698;-80
2021/03/22 02:10:43;;;;;;;17.05;10.63;;;;;;;0.51;60.68;96236.23;1756604;82;21127;-85
2021/03/22 02:13:15;;;;;;;14.17;8.43;;;;;;;0.53;60.82;96238.76;1759046;82;21274;-79
2021/03/22 02:15:45;;;;;;;14.35;9.33;;;;;;;0.50;60.97;96234.58;1756292;82;21140;-79
2021/03/22 02:18:34;;;;;;;14.30;8.90;;;;;;;0.48;61.06;96222.15;1737511;82;21268;-77
2021/03/22 02:21:26;;;;;;;15.13;9.30;;;;;;;0.46;61.21;96225.28;1729622;81;21279;-83
2021/03/22 02:24:16;;;;;;;19.85;10.72;;;;;;;0.34;61.32;96229.37;1730820;81;21180;-81
2021/03/22 02:27:29;;;;;;;18.40;11.77;;;;;;;0.28;61.60;96233.56;1712923;83;21622;-84
2021/03/22 02:30:36;;;;;;;20.83;11.53;;;;;;;0.25;61.93;96236.34;1703006;84;21156;-81
2021/03/22 02:33:09;;;;;;;21.10;10.90;;;;;;;0.20;61.72;96230.54;1727647;83;21155;-77
2021/03/22 02:35:54;;;;;;;17.07;10.97;;;;;;;0.15;62.05;96229.48;1733791;82;21920;-83
2021/03/22 02:38:30;;;;;;;18.45;10.20;;;;;;;0.10;62.31;96228.91;1733899;83;21170;-80
2021/03/22 02:41:06;;;;;;;19.40;9.95;;;;;;;0.06;61.97;96232.56;1734316;83;21158;-83
2021/03/22 02:43:36;;;;;;;19.45;11.33;;;;;;;0.02;61.85;96233.18;1720680;83;21178;-83
2021/03/22 02:46:06;;;;;;;16.03;9.10;;;;;;;-0.01;61.82;96229.47;1705223;83;21289;-79
2021/03/22 02:48:37;;;;;;;15.73;8.60;;;;;;;-0.08;61.71;96230.23;1702877;84;21273;-81
2021/03/22 02:51:19;;;;;;;16.33;8.83;;;;;;;-0.10;61.77;96226.06;1702899;84;21200;-83
2021/03/22 02:53:58;;;;;;;14.53;8.20;;;;;;;-0.10;61.93;96230.77;1704718;83;21258;-79
2021/03/22 02:56:34;;;;;;;12.50;8.00;;;;;;;-0.13;61.77;96223.14;1711635;83;21242;-82
2021/03/22 02:59:16;;;;;;;14.80;7.47;;;;;;;-0.16;61.84;96224.14;1716464;83;21143;-82
2021/03/22 03:02:01;;;;;;;13.78;8.20;;;;;;;-0.14;61.57;96220.64;1817874;77;24604;-80
2021/03/22 03:04:35;;;;;;;13.60;7.80;;;;;;;-0.23;61.74;96211.14;1797832;80;21355;-84
2021/03/22 03:07:08;;;;;;;14.90;8.93;;;;;;;-0.22;61.77;96215.41;1792491;80;21152;-82
2021/03/22 03:09:40;;;;;;;12.83;8.07;;;;;;;-0.26;61.60;96216.94;1794843;80;21293;-82
2021/03/22 03:12:24;;;;;;;17.97;9.07;;;;;;;-0.30;61.65;96220.58;1792098;80;21269;-77
2021/03/22 03:14:55;;;;;;;17.73;9.20;;;;;;;-0.35;61.61;96219.52;1765694;81;21242;-82
2021/03/22 03:17:27;;;;;;;18.67;11.57;;;;;;;-0.38;61.75;96219.70;1731320;83;21267;-81
2021/03/22 03:19:55;;;;;;;22.53;11.20;;;;;;;-0.40;61.70;96220.22;1712731;84;21121;-79
2021/03/22 03:22:24;;;;;;;19.37;12.10;;;;;;;-0.48;61.98;96221.89;1736315;82;21160;-79
2021/03/22 03:24:52;;;;;;;18.70;12.57;;;;;;;-0.56;62.10;96220.14;1741954;82;21188;-80
2021/03/22 03:27:19;;;;;;;18.77;10.40;;;;;;;-0.57;62.46;96223.64;1712782;84;21139;-81
2021/03/22 03:29:47;;;;;;;16.00;10.57;;;;;;;-0.65;62.58;96227.45;1737465;82;21156;-81
2021/03/22 03:32:19;;;;;;;20.43;11.50;;;;;;;-0.65;62.79;96223.58;1718049;82;21256;-81
2021/03/22 03:34:47;;;;;;;14.30;9.73;;;;;;;-0.60;62.95;96224.64;1725169;82;21156;-84
2021/03/22 03:37:15;;;;;;;20.33;11.10;;;;;;;-0.66;62.62;96219.78;1733520;82;21184;-82
2021/03/22 03:39:43;;;;;;;20.17;10.33;;;;;;;-0.68;62.80;96227.59;1731729;83;21242;-78
2021/03/22 03:42:12;;;;;;;18.30;9.70;;;;;;;-0.72;62.82;96225.23;1731532;83;21132;-79
2021/03/22 03:44:41;;;;;;;13.33;8.70;;;;;;;-0.75;63.10;96226.70;1728754;82;21140;-79
2021/03/22 03:47:10;;;;;;;15.97;9.97;;;;;;;-0.74;63.21;96227.09;1736283;82;21262;-79
2021/03/22 03:49:38;;;;;;;16.20;10.27;;;;;;;-0.73;63.33;96222.27;1713509;82;21172;-84
2021/03/22 03:52:08;;;;;;;16.17;8.70;;;;;;;-0.68;63.32;96225.48;1711294;82;21625;-81
2021/03/22 03:54:36;;;;;;;14.70;8.73;;;;;;;-0.72;63.36;96214.88;1709950;84;21163;-83
2021/03/22 03:57:06;;;;;;;15.77;9.40;;;;;;;-0.70;63.47;96225.56;1710465;82;21160;-80
2021/03/22 03:59:33;;;;;;;15.03;9.13;;;;;;;-0.72;62.96;96222.20;1720676;83;21362;-82
2021/03/22 04:02:01;;;;;;;15.30;9.63;;;;;;;-0.79;63.24;96219.55;1716479;82;21164;-80
2021/03/22 04:04:30;;;;;;;15.00;9.40;;;;;;;-0.84;63.45;96218.48;1716135;84;21184;-84
2021/03/22 04:06:59;;;;;;;14.70;8.33;;;;;;;-0.87;63.48;96211.29;1721214;83;21170;-78
2021/03/22 04:09:26;;;;;;;13.30;8.57;;;;;;;-0.86;63.63;96212.97;1738486;82;21265;-81
2021/03/22 04:11:55;;;;;;;15.67;8.87;;;;;;;-0.87;63.59;96210.86;1713969;84;21154;-80
2021/03/22 04:14:27;;;;;;;21.50;9.90;;;;;;;-0.92;63.63;96212.81;1724337;82;21135;-81
2021/03/22 04:16:56;;;;;;;16.27;8.70;;;;;;;-0.94;63.68;96217.25;1747824;82;21133;-83
2021/03/22 04:19:24;;;;;;;13.43;9.00;;;;;;;-0.97;63.82;96211.73;1753107;81;21281;-79
2021/03/22 04:21:53;;;;;;;14.60;8.50;;;;;;;-0.98;63.84;96214.41;1714080;82;21175;-78
2021/03/22 04:24:21;;;;;;;12.97;8.47;;;;;;;-0.97;63.86;96210.45;1736073;82;21560;-81
2021/03/22 04:26:49;;;;;;;14.60;8.60;;;;;;;-0.99;63.78;96204.97;1705083;84;21164;-82
2021/03/22 04:29:16;;;;;;;19.67;10.00;;;;;;;-1.01;63.87;96201.61;1716466;83;21731;-84
2021/03/22 04:31:44;;;;;;;16.83;8.73;;;;;;;-0.98;64.01;96207.50;1710653;83;21322;-79
2021/03/22 04:34:13;;;;;;;13.10;7.60;;;;;;;-0.96;64.17;96206.95;1731114;82;21155;-82
2021/03/22 04:36:41;;;;;;;16.13;7.90;;;;;;;-0.96;64.11;96203.54;1737529;82;21136;-84
2021/03/22 04:39:10;;;;;;;11.90;8.47;;;;;;;-0.92;64.30;96200.34;1752762;82;21586;-84
2021/03/22 04:41:39;;;;;;;16.17;7.73;;;;;;;-0.89;64.40;96200.20;1755462;82;21132;-83
2021/03/22 04:44:08;;;;;;;17.00;7.60;;;;;;;-0.88;64.33;96201.88;1747842;82;21114;-84
2021/03/22 04:46:40;;;;;;;16.73;9.47;;;;;;;-0.88;64.19;96205.77;1726076;82;21163;-79
2021/03/22 04:49:09;;;;;;;20.47;9.63;;;;;;;-0.88;64.04;96201.41;1733306;83;21163;-84
2021/03/22 04:51:38;;;;;;;19.13;9.00;;;;;;;-0.89;63.98;96201.50;1733593;83;21254;-83
2021/03/22 04:54:08;;;;;;;15.17;8.73;;;;;;;-0.88;63.86;96204.00;1733417;82;21135;-80
2021/03/22 04:56:36;;;;;;;18.80;10.23;;;;;;;-0.86;63.88;96198.30;1732296;83;21342;-82
2021/03/22 04:59:04;;;;;;;26.40;12.43;;;;;;;-0.81;63.97;96198.90;1731034;83;21177;-78
2021/03/22 05:01:32;;;;;;;24.43;9.73;;;;;;;-0.72;64.45;96200.20;1737719;82;21188;-79
2021/03/22 05:04:01;;;;;;;18.83;8.80;;;;;;;-0.68;64.14;96197.83;1729122;82;21308;-83
2021/03/22 05:06:29;;;;;;;25.33;11.83;;;;;;;-0.62;63.92;96201.05;1755503;82;21144;-80
2021/03/22 05:08:59;;;;;;;13.27;7.37;;;;;;;-0.59;63.64;96204.31;1756182;82;21298;-85
2021/03/22 05:11:27;;;;;;;13.60;8.10;;;;;;;-0.54;63.42;96203.61;1730668;81;21301;-86
2021/03/22 05:13:55;;;;;;;14.20;8.97;;;;;;;-0.47;63.35;96198.97;1716044;83;21150;-85
2021/03/22 05:16:23;;;;;;;18.43;8.70;;;;;;;-0.40;63.26;96191.73;1739649;82;21156;-85
2021/03/22 05:18:51;;;;;;;15.07;7.50;;;;;;;-0.34;63.07;96192.71;1732997;82;21164;-86
2021/03/22 05:21:25;;;;;;;16.30;8.70;;;;;;;-0.29;62.82;96199.80;1722583;83;21192;-84
2021/03/22 05:23:53;;;;;;;18.03;10.20;;;;;;;-0.16;62.75;96194.83;1704008;84;21732;-84
2021/03/22 05:26:21;;;;;;;17.63;9.53;;;;;;;-0.04;62.57;96199.34;1703579;84;21180;-84
2021/03/22 05:28:49;;;;;;;13.63;7.57;;;;;;;0.10;62.30;96199.09;1713864;83;21156;-82
2021/03/22 05:31:17;;;;;;;16.07;9.13;;;;;;;0.32;62.23;96200.09;1715919;83;21183;-80
2021/03/22 05:33:45;;;;;;;15.43;8.63;;;;;;;0.52;61.52;96197.70;1734836;83;21167;-83
2021/03/22 05:36:13;;;;;;;17.73;10.58;;;;;;;0.72;61.35;96200.97;1733596;83;21283;-82
2021/03/22 05:38:43;;;;;;;14.63;7.93;;;;;;;0.95;61.08;96193.20;1715937;83;21297;-82
2021/03/22 05:41:17;;;;;;;17.25;10.75;;;;;;;1.25;61.02;96200.19;1721446;83;21155;-86
2021/03/22 05:43:53;;;;;;;18.65;10.20;;;;;;;1.65;60.66;96198.33;1725631;83;21569;-83
2021/03/22 05:47:02;;;;;;;20.88;9.18;;;;;;;2.11;59.95;96202.08;1724627;83;21274;-80
2021/03/22 05:49:58;;;;;;;17.75;9.73;;;;;;;2.68;58.93;96202.94;1752814;82;21129;-87
2021/03/22 05:52:50;;;;;;;15.20;7.95;;;;;;;3.30;58.62;96200.78;1753761;82;21160;-86
2021/03/22 05:55:35;;;;;;;22.05;9.30;;;;;;;3.84;56.45;96198.53;1753533;81;21156;-87
2021/03/22 05:58:41;;;;;;;15.65;9.58;;;;;;;4.56;56.07;96200.55;1752602;82;21605;-85
2021/03/22 06:01:38;;;;;;;19.95;9.13;;;;;;;5.27;54.55;96202.00;1753512;81;21164;-89
2021/03/22 06:04:25;;;;;;;20.52;10.32;;;;;;;5.71;55.54;96198.81;1754442;81;21149;-89
2021/03/22 06:06:53;;;;;;;22.13;9.00;;;;;;;6.11;54.16;96198.94;1754185;80;21164;-88
2021/03/22 06:09:45;;;;;;;22.40;9.70;;;;;;;6.30;54.56;96184.80;1754460;82;21160;-87
2021/03/22 06:12:54;;;;;;;16.57;9.48;;;;;;;6.56;52.86;96201.06;1753332;82;21152;-88
2021/03/22 06:15:55;;;;;;;16.50;9.63;;;;;;;6.58;51.05;96198.34;1753940;82;21180;-83
2021/03/22 06:18:34;;;;;;;16.10;9.40;;;;;;;6.56;49.25;96194.52;1753939;82;21628;-82
2021/03/22 06:21:10;;;;;;;18.02;9.78;;;;;;;6.59;49.08;96196.55;1754120;82;21156;-87
2021/03/22 06:23:42;;;;;;;14.70;9.60;;;;;;;6.65;48.24;96190.81;1753849;81;21590;-88
2021/03/22 06:26:25;;;;;;;21.30;9.83;;;;;;;6.80;48.81;96198.79;1754395;82;21287;-84
2021/03/22 06:28:57;;;;;;;15.95;8.85;;;;;;;7.06;49.04;96200.26;1754110;82;21168;-85
2021/03/22 06:31:25;;;;;;;13.28;9.35;;;;;;;7.24;44.24;96192.22;1754228;81;21109;-85
2021/03/22 06:34:06;;;;;;;14.60;9.40;;;;;;;7.56;46.35;96190.56;1754097;82;21172;-81
2021/03/22 06:36:36;;;;;;;19.15;9.83;;;;;;;7.79;46.21;96185.54;1754215;82;21148;-85
2021/03/22 06:39:07;;;;;;;15.25;9.78;;;;;;;8.00;45.29;96188.64;1754378;82;21208;-86
2021/03/22 06:41:51;;;;;;;16.75;9.88;;;;;;;8.15;45.36;96182.58;1754101;82;21167;-81
2021/03/22 06:44:39;;;;;;;21.77;10.72;;;;;;;8.36;43.51;96186.47;1754180;82;21167;-86
2021/03/22 06:47:15;;;;;;;20.80;13.03;;;;;;;8.36;43.51;96186.47;1754061;82;21168;-89
2021/03/22 06:49:48;;;;;;;22.77;11.30;;;;;;;8.25;43.45;96176.89;1754088;82;21160;-86
2021/03/22 06:52:24;;;;;;;22.42;11.10;;;;;;;8.15;45.18;96181.27;1753991;82;21141;-82
2021/03/22 06:54:55;;;;;;;23.80;11.70;;;;;;;8.04;44.65;96191.83;1754292;82;21144;-86
2021/03/22 06:57:28;;;;;;;19.85;10.60;;;;;;;7.97;42.53;96188.89;1754017;82;21168;-86
2021/03/22 07:00:10;;;;;;;21.10;10.60;;;;;;;8.01;43.41;96189.00;1754098;81;21577;-84
2021/03/22 07:02:53;;;;;;;21.65;11.00;;;;;;;8.00;42.69;96191.27;1751680;82;21168;-85
2021/03/22 07:05:32;;;;;;;17.87;9.90;;;;;;;8.01;43.28;96190.30;1751122;80;21152;-85
2021/03/22 07:08:11;;;;;;;16.70;9.20;;;;;;;7.95;41.90;96192.11;1751082;82;21152;-88
2021/03/22 07:10:56;;;;;;;16.80;9.95;;;;;;;7.91;42.31;96205.98;1751312;82;21160;-84
2021/03/22 07:13:30;;;;;;;24.55;10.95;;;;;;;7.84;42.96;96193.52;1751221;82;21192;-82
2021/03/22 07:16:23;;;;;;;17.98;10.35;;;;;;;7.90;40.98;96205.63;1751213;82;21144;-84
2021/03/22 07:19:16;;;;;;;14.23;9.25;;;;;;;7.93;40.46;96205.37;1751171;82;21157;-83
2021/03/22 07:21:58;;;;;;;12.20;9.13;;;;;;;8.06;40.75;96208.29;1751413;82;21652;-87
2021/03/22 07:24:47;;;;;;;14.53;8.78;;;;;;;8.16;40.79;96207.02;1751236;82;21153;-80
2021/03/22 07:27:39;;;;;;;19.73;9.33;;;;;;;8.13;41.70;96214.19;1751597;82;21129;-86
2021/03/22 07:30:42;;;;;;;14.05;8.58;;;;;;;8.12;39.43;96214.32;1751018;82;21132;-83
2021/03/22 07:33:42;;;;;;;15.60;9.55;;;;;;;8.08;39.71;96205.87;1751067;82;21140;-88
2021/03/22 07:36:24;;;;;;;19.40;9.33;;;;;;;8.00;39.73;96207.47;1751112;82;21157;-81
2021/03/22 07:39:16;;;;;;;12.33;8.88;;;;;;;7.98;40.09;96199.73;1751149;82;21136;-87
2021/03/22 07:42:10;;;;;;;14.80;9.60;;;;;;;7.96;41.66;96200.34;1707223;82;21220;-84
2021/03/22 07:44:46;;;;;;;17.77;10.68;;;;;;;7.75;40.86;96207.73;1738668;82;21157;-87
2021/03/22 07:47:53;;;;;;;17.87;10.23;;;;;;;7.68;40.15;96209.70;1746622;82;21610;-83
2021/03/22 07:50:46;;;;;;;20.15;10.03;;;;;;;7.68;40.71;96211.01;1688759;82;21578;-84
2021/03/22 07:53:51;;;;;;;22.22;11.22;;;;;;;7.62;39.84;96213.66;1751479;82;21283;-85
2021/03/22 07:56:49;;;;;;;15.00;11.15;;;;;;;7.45;39.54;96212.41;1750871;82;21149;-86
2021/03/22 07:59:43;;;;;;;18.65;10.23;;;;;;;7.45;39.54;96212.41;1751320;82;21603;-83
2021/03/22 08:02:45;;;;;;;16.35;10.18;;;;;;;7.40;39.84;96213.27;1752870;82;21593;-85
2021/03/22 08:05:28;;;;;;;19.77;9.38;;;;;;;7.40;39.17;96214.09;1754234;80;21190;-86
2021/03/22 08:08:20;;;;;;;23.27;10.03;;;;;;;7.38;40.96;96220.42;1754171;82;21160;-86
2021/03/22 08:11:30;;;;;;;21.17;9.60;;;;;;;7.28;38.27;96211.17;1851318;77;24551;-84
2021/03/22 08:14:15;;;;;;;10.48;7.40;;;;;;;7.26;41.19;96208.66;1823491;78;21287;-82
2021/03/22 08:17:15;;;;;;;13.98;9.25;;;;;;;7.16;40.61;96191.55;1828257;78;21141;-86
2021/03/22 08:20:12;;;;;;;11.33;7.95;;;;;;;7.11;40.76;96196.80;1828713;78;21638;-82
2021/03/22 08:22:57;;;;;;;12.53;8.63;;;;;;;7.19;40.38;96202.26;1823757;78;21607;-86
2021/03/22 08:25:50;;;;;;;14.45;9.13;;;;;;;7.38;40.85;96209.45;1795595;78;21152;-86
2021/03/22 08:28:38;;;;;;;12.88;8.40;;;;;;;7.55;39.96;96208.08;1790252;78;21164;-84
2021/03/22 08:31:30;;;;;;;14.35;8.73;;;;;;;7.82;40.18;96205.44;1826017;78;21157;-85
2021/03/22 08:34:21;;;;;;;13.10;8.68;;;;;;;8.06;40.13;96206.48;1828411;78;21150;-83
2021/03/22 08:37:09;;;;;;;14.75;7.83;;;;;;;8.04;38.87;96199.70;1827696;78;21146;-87
2021/03/22 08:40:01;;;;;;;10.15;5.58;;;;;;;8.10;39.22;96200.03;1828128;78;21145;-84
2021/03/22 08:42:52;;;;;;;13.03;7.40;;;;;;;7.84;34.15;96175.16;1827102;78;21158;-84
2021/03/22 08:45:45;;;;;;;10.98;6.65;;;;;;;8.04;37.98;96197.90;1827504;78;21733;-82
2021/03/22 08:48:26;;;;;;;12.05;7.12;;;;;;;8.28;34.50;96194.17;1827310;78;21598;-87
2021/03/22 08:50:56;;;;;;;7.65;4.60;;;;;;;8.42;36.28;96186.42;1828343;78;21701;-82
2021/03/22 08:53:28;;;;;;;19.02;9.10;;;;;;;8.26;32.51;96186.41;1828385;78;21142;-86
2021/03/22 08:56:01;;;;;;;13.22;8.73;;;;;;;7.37;32.92;96175.50;1827762;78;21625;-86
2021/03/22 08:58:37;;;;;;;14.07;8.75;;;;;;;7.65;35.17;96184.56;1828293;78;21149;-85
2021/03/22 09:01:28;;;;;;;9.38;6.95;;;;;;;7.65;35.17;96184.56;1828364;78;21129;-84
2021/03/22 09:04:19;;;;;;;16.77;7.97;;;;;;;7.69;35.24;96185.95;1828366;78;21157;-82
2021/03/22 09:07:15;;;;;;;11.33;7.80;;;;;;;7.69;35.24;96185.95;1801755;78;21166;-88
2021/03/22 09:09:46;;;;;;;14.98;8.15;;;;;;;7.89;33.78;96184.27;1792724;80;21227;-87
2021/03/22 09:12:45;;;;;;;10.05;7.37;;;;;;;7.68;31.07;96188.71;1788257;80;21540;-83
2021/03/22 09:15:36;;;;;;;14.18;8.70;;;;;;;7.20;34.47;96186.89;1723915;83;21129;-86
2021/03/22 09:18:17;;;;;;;14.28;8.33;;;;;;;7.20;34.47;96186.89;1788103;80;21590;-83
2021/03/22 09:20:56;;;;;;;13.72;7.37;;;;;;;7.10;34.44;96185.47;1787543;80;21161;-89
2021/03/22 09:23:39;;;;;;;15.95;8.15;;;;;;;7.10;34.44;96185.47;1787365;80;21626;-85
2021/03/22 09:26:09;;;;;;;12.25;6.55;;;;;;;6.95;35.29;96185.41;1787213;80;21124;-84
2021/03/22 09:28:45;;;;;;;10.13;5.75;;;;;;;6.90;34.19;96191.02;1787571;80;21138;-88
2021/03/22 09:31:18;;;;;;;11.00;7.35;;;;;;;6.49;34.58;96189.41;1723530;83;21207;-88
2021/03/22 09:34:18;;;;;;;8.58;6.08;;;;;;;6.39;34.31;96196.31;1787293;80;21161;-88
2021/03/22 09:36:48;;;;;;;6.35;4.45;;;;;;;6.48;35.68;96194.29;1787321;80;21145;-86
2021/03/22 09:39:25;;;;;;;12.68;8.50;;;;;;;6.56;35.34;96198.45;1787156;80;21106;-85
2021/03/22 09:42:04;;;;;;;13.93;8.73;;;;;;;6.22;35.94;96190.61;1725960;83;21167;-87
2021/03/22 09:44:55;;;;;;;10.60;7.72;;;;;;;6.29;36.70;96190.98;1725630;83;21212;-85
2021/03/22 09:47:42;;;;;;;9.58;6.17;;;;;;;6.38;36.36;96190.27;1824461;77;24677;-82
2021/03/22 09:50:24;;;;;;;10.78;6.42;;;;;;;6.25;36.72;96202.62;1827529;78;21206;-88
2021/03/22 09:52:57;;;;;;;11.48;7.92;;;;;;;5.99;37.11;96193.69;1828116;78;21144;-82
2021/03/22 09:55:32;;;;;;;8.20;4.75;;;;;;;5.79;37.54;96193.87;1828172;78;21235;-88
2021/03/22 09:58:32;;;;;;;12.47;9.13;;;;;;;5.82;37.40;96201.95;1828490;78;21135;-84
2021/03/22 10:01:21;;;;;;;11.03;7.67;;;;;;;5.62;38.41;96190.71;1828774;78;21297;-88
2021/03/22 10:04:17;;;;;;;11.50;7.30;;;;;;;5.81;38.10;96197.66;1827928;78;21190;-87
2021/03/22 10:06:59;;;;;;;18.12;8.73;;;;;;;5.83;38.53;96193.97;1801565;78;21184;-82
2021/03/22 10:09:40;;;;;;;10.85;8.00;;;;;;;5.88;38.71;96195.78;1796342;80;21124;-89
2021/03/22 10:12:41;;;;;;;16.85;7.58;;;;;;;5.91;38.63;96190.79;1796115;80;21120;-88
2021/03/22 10:15:24;;;;;;;12.05;6.55;;;;;;;5.93;38.86;96187.59;1796029;80;21607;-89
2021/03/22 10:18:26;;;;;;;11.85;7.75;;;;;;;6.06;38.46;96190.95;1796108;80;21171;-86
2021/03/22 10:21:17;;;;;;;10.48;5.97;;;;;;;6.01;38.23;96184.40;1796108;80;21150;-85
2021/03/22 10:24:02;;;;;;;6.92;4.40;;;;;;;6.07;38.32;96195.23;1767156;80;21193;-84
2021/03/22 10:26:38;;;;;;;7.67;4.87;;;;;;;6.11;37.92;96195.83;1767597;80;21127;-85
2021/03/22 10:29:23;;;;;;;12.00;4.67;;;;;;;5.89;37.11;96196.60;1795284;80;21218;-82
2021/03/22 10:32:07;;;;;;;9.63;5.85;;;;;;;5.65;36.54;96200.13;1795864;80;21155;-86
2021/03/22 10:34:55;;;;;;;20.95;4.28;;;;;;;5.44;37.51;96206.45;1795638;80;21119;-81
2021/03/22 10:37:32;;;;;;;8.38;6.10;;;;;;;5.44;37.05;96207.77;1787613;80;21092;-86
2021/03/22 10:40:06;;;;;;;7.50;5.33;;;;;;;5.25;37.68;96203.89;1778259;80;21132;-86
2021/03/22 10:42:40;;;;;;;7.62;4.95;;;;;;;5.26;37.74;96202.95;1771578;80;21127;-82
2021/03/22 10:45:28;;;;;;;7.45;5.33;;;;;;;5.33;37.59;96207.74;1785880;80;21151;-87
2021/03/22 10:47:59;;;;;;;5.60;3.87;;;;;;;5.17;37.92;96204.92;1739002;81;21115;-85
2021/03/22 10:50:37;;;;;;;8.08;4.92;;;;;;;5.03;38.22;96215.55;1763771;81;21634;-83
2021/03/22 10:53:14;;;;;;;7.22;4.25;;;;;;;4.90;38.28;96208.59;1763463;81;21147;-86
2021/03/22 10:55:53;;;;;;;7.17;4.78;;;;;;;4.66;38.99;96214.63;1816631;79;24468;-83
2021/03/22 10:58:32;;;;;;;9.60;7.15;;;;;;;4.76;39.40;96207.45;1795550;80;21163;-82
2021/03/22 11:01:07;;;;;;;6.03;4.35;;;;;;;4.95;39.83;96206.50;1795839;80;21123;-90
2021/03/22 11:03:37;;;;;;;10.30;6.65;;;;;;;5.06;39.02;96214.03;1795979;80;21112;-88
2021/03/22 11:06:13;;;;;;;13.03;7.33;;;;;;;5.16;39.46;96208.48;1792386;80;21156;-82
2021/03/22 11:08:44;;;;;;;13.45;5.78;;;;;;;5.13;39.02;96200.88;1789495;80;21621;-86
2021/03/22 11:11:15;;;;;;;8.45;5.55;;;;;;;5.28;39.43;96210.70;1779742;80;21342;-81
2021/03/22 11:13:47;;;;;;;10.95;7.37;;;;;;;5.09;39.24;96207.27;1773893;80;21160;-80
2021/03/22 11:16:27;;;;;;;11.35;7.58;;;;;;;5.00;39.65;96210.91;1783050;80;21187;-83
2021/03/22 11:18:57;;;;;;;11.55;5.42;;;;;;;5.29;40.15;96213.67;1765329;81;21152;-84
2021/03/22 11:21:28;;;;;;;11.05;7.08;;;;;;;5.28;38.99;96201.06;1776760;80;21168;-86
2021/03/22 11:23:57;;;;;;;11.10;6.97;;;;;;;5.31;39.55;96202.16;1768464;81;21156;-86
2021/03/22 11:26:30;;;;;;;12.33;6.20;;;;;;;5.54;39.53;96203.52;1772039;80;21116;-83
2021/03/22 11:29:19;;;;;;;10.43;7.37;;;;;;;5.83;39.25;96200.52;1793947;80;21155;-80
2021/03/22 11:32:01;;;;;;;8.73;5.28;;;;;;;6.00;38.98;96198.42;1772095;80;21173;-84
2021/03/22 11:34:43;;;;;;;11.80;6.83;;;;;;;6.28;38.39;96198.47;1788605;80;21529;-84
2021/03/22 11:37:31;;;;;;;12.70;5.80;;;;;;;6.45;38.36;96196.31;1755728;80;21179;-82
2021/03/22 11:40:17;;;;;;;9.45;5.08;;;;;;;6.56;38.28;96193.70;1788069;80;21179;-85
2021/03/22 11:43:02;;;;;;;;;;;;;;;6.30;37.59;96187.88;1779015;80;21182;-84
2021/03/22 11:45:36;;;;;;;9.83;6.30;;;;;;;6.21;39.04;96195.97;1787001;80;20471;-79
2021/03/22 11:48:12;;;;;;;14.93;8.08;;;;;;;6.37;38.17;96194.28;1781898;80;21175;-84
2021/03/22 11:50:44;;;;;;;10.63;6.37;;;;;;;6.48;38.18;96191.67;1760263;80;21136;-82
2021/03/22 11:53:19;;;;;;;12.25;8.03;;;;;;;6.48;38.18;96191.67;1772573;80;21120;-82
2021/03/22 11:55:54;;;;;;;11.05;6.45;;;;;;;6.50;38.55;96187.61;1770687;80;21147;-83
2021/03/22 11:58:37;;;;;;;8.40;4.55;;;;;;;6.26;38.26;96199.05;1765708;80;21136;-80
2021/03/22 12:01:26;;;;;;;13.65;7.60;;;;;;;5.80;39.00;96199.42;1775960;80;21170;-78
2021/03/22 12:04:07;;;;;;;14.18;8.00;;;;;;;5.54;39.67;96198.30;1776512;80;21148;-88
2021/03/22 12:06:49;;;;;;;14.47;8.43;;;;;;;5.36;40.27;96195.28;1779355;79;21147;-85
2021/03/22 12:09:17;;;;;;;10.80;7.03;;;;;;;5.56;40.59;96196.89;1774610;80;21152;-81
2021/03/22 12:11:44;;;;;;;7.22;4.95;;;;;;;5.78;40.35;96202.66;1773188;80;21136;-85
2021/03/22 12:14:12;;;;;;;10.65;7.45;;;;;;;5.83;39.95;96196.59;1772663;80;21132;-84
2021/03/22 12:16:40;;;;;;;14.28;8.03;;;;;;;5.83;40.06;96204.44;1771193;80;21112;-83
2021/03/22 12:19:16;;;;;;;8.58;5.95;;;;;;;5.68;40.41;96209.03;1776915;80;21155;-81
2021/03/22 12:21:44;;;;;;;13.62;6.85;;;;;;;5.66;40.63;96202.26;1765978;80;21629;-84